< < Back
Terminal Aerodrome Forecast


Current Version              Previous Versions:   1  2  3  4  5  6  7  8  9  

Terminal Aerodrome Forecast

785
FTUS42 KCHS 281130
TAFSAV
TAF
KSAV 281130Z 2812/2912 10006KT P6SM SKC
     FM281600 11011KT P6SM FEW035
     FM290030 VRB03KT P6SM FEW030=

Latest METAR

153
SAUS80 KWBC 290200
MTRSAV
METAR KSAV 290153Z 11004KT 10SM FEW100 SCT250 23/16 A3019 RMK AO2 SLP222
T02280156 $


USA.gov is the U.S. government's official web portal to all federal, state and local government web resources and services.